Time;durP1;ratioP1;P1;durP2;ratioP2;P2;SDS_P1;SDS_P2;PMS_P1;PMS_P2;Temp;Humidity;BMP_temperature;BMP_pressure;BME280_temperature;BME280_humidity;BME280_pressure;Samples;Min_cycle;Max_cycle;Signal;HPM_P1;HPM_P2
2022/06/07 00:02:03;;;;;;;6.03;3.72;;;17.40;99.90;;;;;;5094663;28;20099;-57
2022/06/07 00:04:29;;;;;;;7.45;3.63;;;17.50;99.90;;;;;;5094331;28;20035;-57
2022/06/07 00:06:55;;;;;;;4.60;3.63;;;17.40;99.90;;;;;;5094270;28;20020;-57
2022/06/07 00:09:20;;;;;;;8.55;3.55;;;17.50;99.90;;;;;;5093281;28;20111;-56
2022/06/07 00:11:46;;;;;;;9.90;4.50;;;17.50;99.90;;;;;;5094083;28;20047;-57
2022/06/07 00:14:11;;;;;;;9.27;4.28;;;17.40;99.90;;;;;;5094115;28;20512;-56
2022/06/07 00:16:37;;;;;;;6.13;3.42;;;17.50;99.90;;;;;;5093649;28;20024;-56
2022/06/07 00:19:03;;;;;;;4.65;4.00;;;17.50;99.90;;;;;;5093070;28;20039;-56
2022/06/07 00:21:29;;;;;;;4.82;3.90;;;17.60;99.90;;;;;;5094551;28;20028;-55
2022/06/07 00:24:00;;;;;;;3.33;3.00;;;17.60;99.90;;;;;;5094552;28;20024;-54
2022/06/07 00:26:27;;;;;;;6.03;3.40;;;17.50;99.90;;;;;;5094284;28;20024;-56
2022/06/07 00:28:54;;;;;;;4.90;3.65;;;17.40;99.90;;;;;;5094991;28;20096;-56
2022/06/07 00:31:20;;;;;;;7.68;4.03;;;17.40;99.90;;;;;;5093435;28;20035;-54
2022/06/07 00:33:46;;;;;;;8.30;3.97;;;17.30;99.90;;;;;;5092175;28;20032;-56
2022/06/07 00:36:12;;;;;;;5.20;4.45;;;17.20;99.90;;;;;;5093844;28;20032;-56
2022/06/07 00:38:38;;;;;;;8.07;5.47;;;17.00;99.90;;;;;;5092630;28;20081;-55
2022/06/07 00:41:04;;;;;;;5.13;4.57;;;16.90;99.90;;;;;;5093461;28;20024;-54
2022/06/07 00:43:30;;;;;;;6.97;4.45;;;16.90;99.90;;;;;;5093552;28;20464;-55
2022/06/07 00:45:57;;;;;;;9.07;4.82;;;16.90;99.90;;;;;;5091976;28;20055;-57
2022/06/07 00:48:22;;;;;;;5.82;5.00;;;16.90;99.90;;;;;;5093652;28;20046;-56
2022/06/07 00:51:06;;;;;;;10.13;5.22;;;17.00;99.90;;;;;;5093843;28;20429;-56
2022/06/07 00:53:34;;;;;;;7.97;4.88;;;17.00;99.90;;;;;;5091777;28;20078;-55
2022/06/07 00:56:00;;;;;;;5.95;4.70;;;17.00;99.90;;;;;;5094029;28;20119;-56
2022/06/07 00:58:28;;;;;;;6.93;5.32;;;17.00;99.90;;;;;;5093609;28;20441;-56
2022/06/07 01:00:55;;;;;;;8.48;5.65;;;16.90;99.90;;;;;;5091765;28;20111;-55
2022/06/07 01:03:55;;;;;;;7.80;5.25;;;16.90;99.90;;;;;;5091705;28;20065;-56
2022/06/07 01:11:50;;;;;;;8.20;5.43;;;16.90;99.90;;;;;;5092886;28;20563;-55
2022/06/07 01:14:16;;;;;;;11.63;5.30;;;16.90;99.90;;;;;;5092829;28;20019;-56
2022/06/07 01:16:41;;;;;;;10.40;5.70;;;16.90;99.90;;;;;;5092359;28;20032;-55
2022/06/07 01:19:08;;;;;;;7.47;5.47;;;16.80;99.90;;;;;;5092825;28;20028;-56
2022/06/07 01:21:36;;;;;;;7.63;5.22;;;16.80;99.90;;;;;;5092717;28;20059;-56
2022/06/07 01:24:02;;;;;;;7.38;5.57;;;16.80;99.90;;;;;;5093270;28;20023;-55
2022/06/07 01:26:28;;;;;;;8.57;6.05;;;16.80;99.90;;;;;;5092472;28;20047;-56
2022/06/07 01:28:53;;;;;;;7.07;6.38;;;16.80;99.90;;;;;;5092705;28;20020;-56
2022/06/07 01:31:19;;;;;;;9.85;5.30;;;16.80;99.90;;;;;;5091157;28;20368;-55
2022/06/07 01:33:45;;;;;;;6.05;5.43;;;16.90;99.90;;;;;;5092793;28;20062;-56
2022/06/07 01:36:13;;;;;;;6.47;5.72;;;16.80;99.90;;;;;;5094028;28;20490;-56
2022/06/07 01:38:42;;;;;;;6.53;5.82;;;16.60;99.90;;;;;;5092319;28;20039;-54
2022/06/07 01:43:53;;;;;;;7.20;5.57;;;16.80;99.90;;;;;;5092750;28;20031;-55
2022/06/07 01:46:19;;;;;;;9.63;5.57;;;16.90;99.90;;;;;;5092746;28;20073;-56
2022/06/07 01:48:46;;;;;;;10.70;6.75;;;16.80;99.90;;;;;;5092919;28;20085;-55
2022/06/07 01:51:12;;;;;;;8.82;5.72;;;16.90;99.90;;;;;;5092800;28;20027;-56
2022/06/07 01:53:38;;;;;;;8.57;5.00;;;16.90;99.90;;;;;;5092793;28;20024;-56
2022/06/07 01:56:13;;;;;;;7.05;5.30;;;16.90;99.90;;;;;;5092579;28;20030;-56
2022/06/07 01:58:44;;;;;;;8.02;5.50;;;17.00;99.90;;;;;;5091421;28;20364;-56
2022/06/07 02:01:12;;;;;;;9.65;5.43;;;17.00;99.90;;;;;;5092239;28;20077;-55
2022/06/07 02:03:39;;;;;;;10.45;5.00;;;17.00;99.90;;;;;;5091999;28;20081;-56
2022/06/07 02:06:07;;;;;;;6.38;5.55;;;16.90;99.90;;;;;;5092469;28;20030;-57
2022/06/07 02:08:36;;;;;;;7.15;6.03;;;16.80;99.90;;;;;;5091426;28;20080;-56
2022/06/07 02:11:11;;;;;;;8.23;5.63;;;16.90;99.90;;;;;;5091643;28;20060;-55
2022/06/07 02:13:37;;;;;;;8.40;5.38;;;16.90;99.90;;;;;;5092793;28;20020;-55
2022/06/07 02:16:03;;;;;;;5.60;5.10;;;17.00;99.90;;;;;;5091508;28;20683;-56
2022/06/07 02:18:29;;;;;;;6.30;5.63;;;17.00;99.90;;;;;;5092184;28;20020;-57
2022/06/07 02:20:57;;;;;;;9.13;5.53;;;17.00;99.90;;;;;;5092180;28;20055;-56
2022/06/07 02:23:24;;;;;;;5.03;4.53;;;17.00;99.90;;;;;;5092620;28;20016;-57
2022/06/07 02:25:56;;;;;;;5.22;4.43;;;17.10;99.90;;;;;;5089836;28;20028;-53
2022/06/07 02:28:27;;;;;;;6.70;5.57;;;17.00;99.90;;;;;;5091745;28;20471;-55
2022/06/07 02:30:53;;;;;;;9.95;5.40;;;16.90;99.90;;;;;;5090162;28;20473;-55
2022/06/07 02:33:20;;;;;;;5.55;5.00;;;16.90;99.90;;;;;;5090949;28;20016;-56
2022/06/07 02:35:47;;;;;;;8.00;4.97;;;16.90;99.90;;;;;;5091194;28;20028;-55
2022/06/07 02:38:14;;;;;;;9.00;4.93;;;16.90;99.90;;;;;;5092380;28;20028;-56
2022/06/07 02:40:41;;;;;;;5.03;4.60;;;16.80;99.90;;;;;;5090944;28;20047;-55
2022/06/07 02:43:06;;;;;;;5.53;4.50;;;16.80;99.90;;;;;;5090914;28;20039;-56
2022/06/07 02:45:33;;;;;;;15.32;4.93;;;16.80;99.90;;;;;;5091795;28;20016;-56
2022/06/07 02:47:58;;;;;;;4.70;4.05;;;16.80;99.90;;;;;;5092128;28;20147;-56
2022/06/07 02:50:24;;;;;;;6.70;4.65;;;16.80;99.90;;;;;;5091568;28;20101;-55
2022/06/07 02:52:50;;;;;;;4.13;3.60;;;16.80;99.90;;;;;;5092153;28;20028;-55
2022/06/07 02:55:16;;;;;;;4.90;4.47;;;16.80;99.90;;;;;;5091787;28;20340;-55
2022/06/07 02:57:42;;;;;;;7.35;4.22;;;16.80;99.90;;;;;;5090170;28;20035;-56
2022/06/07 03:00:11;;;;;;;11.02;4.53;;;16.80;99.90;;;;;;5090729;28;20028;-55
2022/06/07 03:02:37;;;;;;;4.78;4.38;;;16.80;99.90;;;;;;5091526;28;20102;-55
2022/06/07 03:05:03;;;;;;;5.85;5.07;;;16.80;99.90;;;;;;5090698;28;20413;-54
2022/06/07 03:07:29;;;;;;;5.47;4.90;;;16.80;99.90;;;;;;5091700;28;20047;-56
2022/06/07 03:09:54;;;;;;;4.32;3.92;;;16.80;99.90;;;;;;5090765;28;20032;-55
2022/06/07 03:12:20;;;;;;;4.93;4.53;;;16.80;99.90;;;;;;5091336;28;20043;-56
2022/06/07 03:14:47;;;;;;;5.05;4.45;;;16.90;99.90;;;;;;5092645;28;20024;-56
2022/06/07 03:17:13;;;;;;;5.93;4.88;;;16.90;99.90;;;;;;5091406;28;20024;-55
2022/06/07 03:19:38;;;;;;;8.05;5.07;;;16.70;99.90;;;;;;5090931;28;20024;-56
2022/06/07 03:22:07;;;;;;;6.32;5.00;;;16.70;99.90;;;;;;5090560;28;20426;-52
2022/06/07 03:24:33;;;;;;;6.15;4.97;;;16.70;99.90;;;;;;5091017;28;20380;-54
2022/06/07 03:27:00;;;;;;;5.00;4.35;;;16.80;99.90;;;;;;5092243;28;20132;-55
2022/06/07 03:29:26;;;;;;;5.60;4.35;;;16.70;99.90;;;;;;5090155;28;20066;-56
2022/06/07 03:31:52;;;;;;;8.35;5.05;;;16.80;99.90;;;;;;5091322;28;20433;-55
2022/06/07 03:34:19;;;;;;;5.65;4.93;;;16.70;99.90;;;;;;5091459;28;20029;-55
2022/06/07 03:36:45;;;;;;;6.35;4.45;;;16.80;99.90;;;;;;5089202;28;20249;-57
2022/06/07 03:39:10;;;;;;;6.38;5.20;;;16.80;99.90;;;;;;5089971;28;20076;-55
2022/06/07 03:41:37;;;;;;;5.63;4.93;;;16.80;99.90;;;;;;5091173;28;20080;-56
2022/06/07 03:44:04;;;;;;;7.30;4.78;;;16.80;99.90;;;;;;5090233;28;20458;-55
2022/06/07 03:46:33;;;;;;;4.97;4.07;;;16.80;99.90;;;;;;5090445;28;20495;-55
2022/06/07 03:48:59;;;;;;;6.28;4.00;;;16.90;99.90;;;;;;5090550;28;20386;-56
2022/06/07 03:51:28;;;;;;;4.45;3.97;;;16.90;99.90;;;;;;5089077;28;20368;-56
2022/06/07 03:53:56;;;;;;;10.77;4.18;;;16.90;99.90;;;;;;5089794;28;20107;-55
2022/06/07 03:56:23;;;;;;;6.35;4.82;;;17.00;99.90;;;;;;5092642;28;20028;-54
2022/06/07 03:58:49;;;;;;;7.00;4.60;;;17.00;99.90;;;;;;5093589;28;20074;-55
2022/06/07 04:01:17;;;;;;;6.60;4.55;;;16.90;99.90;;;;;;5093786;28;20103;-55
2022/06/07 04:03:48;;;;;;;12.32;4.10;;;16.90;99.90;;;;;;5091639;28;20024;-54
2022/06/07 04:06:25;;;;;;;5.47;4.97;;;16.80;99.90;;;;;;5093598;28;20020;-55
2022/06/07 04:08:52;;;;;;;6.60;4.63;;;16.80;99.90;;;;;;5093111;28;20355;-56
2022/06/07 04:11:20;;;;;;;5.03;4.40;;;16.70;99.90;;;;;;5092993;28;20008;-55
2022/06/07 04:13:47;;;;;;;7.90;6.00;;;16.70;99.90;;;;;;5094376;28;20082;-55
2022/06/07 04:16:15;;;;;;;5.75;4.85;;;16.70;99.90;;;;;;5096046;28;20542;-56
2022/06/07 04:18:42;;;;;;;5.47;4.97;;;16.70;99.90;;;;;;5092996;28;20027;-55
2022/06/07 04:21:08;;;;;;;10.07;5.10;;;16.70;99.90;;;;;;5093246;28;20043;-55
2022/06/07 04:23:34;;;;;;;5.40;4.90;;;16.70;99.90;;;;;;5093508;28;20043;-55
2022/06/07 04:26:10;;;;;;;17.42;5.72;;;16.60;99.90;;;;;;5094221;28;20463;-55
2022/06/07 04:28:36;;;;;;;6.18;4.95;;;16.60;99.90;;;;;;5093684;28;20103;-53
2022/06/07 04:31:03;;;;;;;11.52;5.00;;;16.70;99.90;;;;;;5095291;28;20030;-55
2022/06/07 04:33:29;;;;;;;5.13;4.63;;;16.70;99.90;;;;;;5093219;28;20016;-55
2022/06/07 04:35:54;;;;;;;6.97;4.57;;;16.70;99.90;;;;;;5092959;28;20591;-54
2022/06/07 04:38:21;;;;;;;4.78;4.38;;;16.80;99.90;;;;;;5094264;28;20059;-55
2022/06/07 04:40:47;;;;;;;9.40;5.30;;;16.80;99.90;;;;;;5093718;28;20127;-54
2022/06/07 04:43:12;;;;;;;7.82;5.28;;;16.80;99.90;;;;;;5093821;28;20425;-56
2022/06/07 04:45:40;;;;;;;8.65;6.40;;;16.70;99.90;;;;;;5094123;28;20382;-55
2022/06/07 04:48:07;;;;;;;4.88;4.13;;;16.70;99.90;;;;;;5089395;28;20047;-54
2022/06/07 04:50:34;;;;;;;7.50;4.05;;;16.70;99.90;;;;;;5092977;28;20024;-56
2022/06/07 04:53:00;;;;;;;3.33;3.08;;;16.80;99.90;;;;;;5092966;28;20085;-51
2022/06/07 04:55:26;;;;;;;5.38;4.10;;;16.80;99.90;;;;;;5093018;28;20020;-54
2022/06/07 04:57:51;;;;;;;4.05;3.40;;;16.80;99.90;;;;;;5094848;28;20034;-54
2022/06/07 05:00:18;;;;;;;3.60;3.03;;;16.80;99.90;;;;;;5093405;28;20035;-55
2022/06/07 05:02:46;;;;;;;4.57;3.10;;;16.90;99.90;;;;;;5093102;28;20020;-56
2022/06/07 05:05:14;;;;;;;4.05;3.45;;;16.90;99.90;;;;;;5092839;28;20731;-53
2022/06/07 05:07:40;;;;;;;3.70;3.40;;;16.80;99.90;;;;;;5092458;28;20516;-56
2022/06/07 05:10:09;;;;;;;3.40;3.10;;;16.90;99.90;;;;;;5092124;28;20070;-56
2022/06/07 05:12:36;;;;;;;4.50;3.05;;;16.80;99.90;;;;;;5093223;28;20527;-55
2022/06/07 05:15:03;;;;;;;8.25;3.55;;;16.80;99.90;;;;;;5093221;28;20039;-56
2022/06/07 05:17:30;;;;;;;3.33;3.03;;;16.70;99.90;;;;;;5092906;28;20062;-55
2022/06/07 05:19:56;;;;;;;4.35;3.50;;;16.70;99.90;;;;;;5093195;28;20051;-55
2022/06/07 05:22:22;;;;;;;4.05;3.63;;;16.70;99.90;;;;;;5084229;28;20467;-55
2022/06/07 05:24:48;;;;;;;7.95;3.67;;;16.70;99.90;;;;;;5094341;28;20031;-54
2022/06/07 05:27:18;;;;;;;3.63;3.33;;;16.60;99.90;;;;;;5092596;28;20016;-55
2022/06/07 05:29:48;;;;;;;3.40;3.10;;;16.70;99.90;;;;;;5092989;28;20012;-55
2022/06/07 05:32:15;;;;;;;5.32;3.38;;;16.60;99.90;;;;;;5091429;28;20111;-56
2022/06/07 05:34:41;;;;;;;5.65;3.42;;;16.60;99.90;;;;;;5091618;28;20005;-55
2022/06/07 05:37:13;;;;;;;3.70;3.40;;;16.60;99.90;;;;;;5093740;28;20024;-56
2022/06/07 05:39:39;;;;;;;4.18;3.72;;;16.60;99.90;;;;;;5092152;28;20052;-55
2022/06/07 05:42:05;;;;;;;5.18;3.75;;;16.50;99.90;;;;;;5092049;28;20034;-55
2022/06/07 05:44:31;;;;;;;9.15;3.83;;;16.50;99.90;;;;;;5092435;28;20024;-55
2022/06/07 05:47:00;;;;;;;3.53;3.03;;;16.50;99.90;;;;;;5092396;28;20410;-55
2022/06/07 05:49:26;;;;;;;4.10;3.40;;;16.50;99.90;;;;;;5092835;28;20157;-53
2022/06/07 05:51:51;;;;;;;6.72;3.60;;;16.50;99.90;;;;;;5092462;28;20028;-55
2022/06/07 05:54:17;;;;;;;4.82;3.42;;;16.50;99.90;;;;;;5093318;28;20035;-56
2022/06/07 05:56:43;;;;;;;3.65;3.30;;;16.60;99.90;;;;;;5092813;28;20328;-55
2022/06/07 05:59:09;;;;;;;4.95;3.42;;;16.60;99.90;;;;;;5093438;28;20028;-54
2022/06/07 06:01:35;;;;;;;4.97;3.70;;;16.60;99.90;;;;;;5092221;28;20032;-55
2022/06/07 06:04:03;;;;;;;4.00;3.63;;;16.70;99.90;;;;;;5091433;28;20030;-56
2022/06/07 06:06:30;;;;;;;4.68;4.00;;;16.70;99.90;;;;;;5092297;28;20014;-54
2022/06/07 06:11:40;;;;;;;4.10;3.70;;;16.70;99.90;;;;;;5092517;28;20039;-56
2022/06/07 06:14:06;;;;;;;3.88;3.45;;;16.60;99.90;;;;;;5091590;28;20434;-57
2022/06/07 06:16:32;;;;;;;4.82;4.07;;;16.60;99.90;;;;;;5092141;28;20024;-55
2022/06/07 06:18:59;;;;;;;3.83;3.53;;;16.60;99.90;;;;;;5091142;28;20512;-53
2022/06/07 06:21:28;;;;;;;5.25;3.75;;;16.60;99.90;;;;;;5090157;28;20020;-55
2022/06/07 06:23:58;;;;;;;5.13;3.78;;;16.50;99.90;;;;;;5090586;28;20035;-56
2022/06/07 06:26:24;;;;;;;4.00;3.28;;;16.60;99.90;;;;;;5091984;28;20024;-56
2022/06/07 06:28:49;;;;;;;9.48;3.42;;;16.60;99.90;;;;;;5091663;28;20028;-52
2022/06/07 06:31:16;;;;;;;3.67;3.38;;;16.70;99.90;;;;;;5091966;28;20455;-56
2022/06/07 06:33:45;;;;;;;5.88;3.50;;;16.80;99.90;;;;;;5091882;28;20162;-55
2022/06/07 06:36:14;;;;;;;4.88;4.05;;;16.80;99.90;;;;;;5091983;28;20076;-55
2022/06/07 06:38:40;;;;;;;9.05;4.38;;;16.70;99.90;;;;;;5091963;28;20047;-55
2022/06/07 06:41:23;;;;;;;5.85;4.57;;;16.60;99.90;;;;;;5092191;28;20020;-56
2022/06/07 06:43:50;;;;;;;4.33;3.93;;;16.60;99.90;;;;;;5091909;28;20024;-56
2022/06/07 06:46:27;;;;;;;4.15;3.83;;;16.70;99.90;;;;;;5091928;28;20250;-56
2022/06/07 06:48:53;;;;;;;6.00;3.63;;;16.80;99.90;;;;;;5091754;28;20487;-52
2022/06/07 06:51:22;;;;;;;4.88;3.97;;;16.90;99.90;;;;;;5091807;28;20028;-55
2022/06/07 06:53:49;;;;;;;4.60;3.85;;;16.90;99.90;;;;;;5091675;28;20025;-55
2022/06/07 06:56:18;;;;;;;4.88;3.50;;;16.90;99.90;;;;;;5091706;28;20016;-55
2022/06/07 06:58:43;;;;;;;2.80;2.55;;;17.00;99.90;;;;;;5090716;28;20036;-56
2022/06/07 07:01:26;;;;;;;5.50;3.25;;;17.00;99.90;;;;;;5090767;28;20024;-55
2022/06/07 07:03:53;;;;;;;3.30;2.97;;;17.10;99.90;;;;;;5090735;28;20020;-57
2022/06/07 07:06:23;;;;;;;48.83;34.40;;;17.00;99.90;;;;;;5091133;28;20509;-55
2022/06/07 07:08:49;;;;;;;5.82;4.07;;;16.80;99.90;;;;;;5091220;28;20077;-55
2022/06/07 07:11:24;;;;;;;6.85;4.97;;;16.70;99.90;;;;;;5091904;28;20599;-56
2022/06/07 07:13:51;;;;;;;3.10;2.88;;;16.70;99.90;;;;;;5092701;28;20024;-55
2022/06/07 07:16:19;;;;;;;5.05;2.65;;;16.50;99.90;;;;;;5092876;28;20573;-57
2022/06/07 07:18:46;;;;;;;3.78;3.47;;;16.60;99.90;;;;;;5090743;28;20379;-55
2022/06/07 07:21:16;;;;;;;3.63;3.33;;;16.60;99.90;;;;;;5091963;28;20072;-56
2022/06/07 07:23:42;;;;;;;5.53;3.88;;;16.60;99.90;;;;;;5092177;28;20028;-56
2022/06/07 07:26:12;;;;;;;2.47;2.28;;;16.70;99.90;;;;;;5090354;28;20020;-57
2022/06/07 07:28:40;;;;;;;3.00;2.70;;;16.80;99.90;;;;;;5092208;28;20028;-56
2022/06/07 07:31:11;;;;;;;2.55;2.40;;;16.80;99.90;;;;;;5096367;28;20031;-55
2022/06/07 07:33:36;;;;;;;8.50;4.45;;;16.70;99.90;;;;;;5093997;28;20034;-57
2022/06/07 07:36:05;;;;;;;2.92;2.72;;;16.90;99.90;;;;;;5096266;28;20103;-55
2022/06/07 07:38:31;;;;;;;2.33;2.00;;;17.00;99.90;;;;;;5094834;28;20028;-55
2022/06/07 07:40:57;;;;;;;5.28;2.80;;;16.80;99.90;;;;;;5095777;28;20127;-56
2022/06/07 07:43:22;;;;;;;2.67;2.47;;;17.00;99.90;;;;;;5095351;28;20479;-56
2022/06/07 07:45:53;;;;;;;9.48;2.88;;;16.90;99.90;;;;;;5095564;28;20027;-55
2022/06/07 07:48:21;;;;;;;2.65;2.35;;;16.90;99.90;;;;;;5094458;28;20020;-55
2022/06/07 07:50:48;;;;;;;1.85;1.75;;;17.30;99.90;;;;;;5094981;28;20036;-56
2022/06/07 07:53:14;;;;;;;2.83;1.90;;;17.10;99.90;;;;;;5093670;28;20475;-55
2022/06/07 07:55:48;;;;;;;2.80;2.55;;;17.10;99.90;;;;;;5094939;28;20062;-55
2022/06/07 07:58:14;;;;;;;2.00;1.90;;;17.10;99.90;;;;;;5094404;28;20023;-57
2022/06/07 08:00:45;;;;;;;2.08;1.92;;;17.00;99.90;;;;;;5094275;28;20500;-54
2022/06/07 08:03:11;;;;;;;4.00;2.70;;;17.10;99.90;;;;;;5094985;28;20016;-54
2022/06/07 08:05:37;;;;;;;2.20;2.03;;;17.00;99.90;;;;;;5094299;28;20412;-56
2022/06/07 08:08:08;;;;;;;22.85;16.38;;;17.00;99.90;;;;;;5094787;28;20593;-57
2022/06/07 08:10:34;;;;;;;3.83;2.10;;;16.90;99.90;;;;;;5094278;28;20024;-56
2022/06/07 08:13:01;;;;;;;3.65;1.80;;;16.90;99.90;;;;;;5094920;28;21149;-56
2022/06/07 08:15:29;;;;;;;1.75;1.65;;;16.90;99.90;;;;;;5094111;28;20449;-56
2022/06/07 08:17:55;;;;;;;2.30;2.10;;;16.90;99.90;;;;;;5093817;28;20020;-55
2022/06/07 08:20:22;;;;;;;1.20;1.20;;;17.00;99.90;;;;;;5095060;28;20033;-57
2022/06/07 08:22:49;;;;;;;1.85;1.75;;;17.10;99.90;;;;;;5094292;28;20028;-56
2022/06/07 08:25:16;;;;;;;1.95;1.83;;;17.30;99.90;;;;;;5093137;28;20020;-56
2022/06/07 08:27:43;;;;;;;2.40;2.17;;;17.20;99.90;;;;;;5094601;28;20111;-56
2022/06/07 08:30:09;;;;;;;3.83;2.65;;;17.20;99.90;;;;;;5094409;28;20032;-57
2022/06/07 08:32:35;;;;;;;2.20;2.10;;;17.10;99.90;;;;;;5094022;28;20428;-56
2022/06/07 08:37:46;;;;;;;3.45;3.10;;;17.10;99.90;;;;;;5094074;28;20059;-56
2022/06/07 08:40:27;;;;;;;1.73;1.63;;;17.20;99.90;;;;;;5093054;28;20047;-56
2022/06/07 08:42:56;;;;;;;1.85;1.75;;;17.30;99.90;;;;;;5094840;28;20020;-57
2022/06/07 08:45:30;;;;;;;2.15;2.00;;;17.30;99.90;;;;;;5094591;28;20069;-55
2022/06/07 08:48:06;;;;;;;1.77;1.67;;;17.30;99.90;;;;;;5094059;28;20447;-57
2022/06/07 08:50:39;;;;;;;2.28;1.75;;;17.30;99.90;;;;;;5093991;28;20028;-58
2022/06/07 08:53:19;;;;;;;1.70;1.60;;;17.10;99.90;;;;;;5093499;28;20028;-56
2022/06/07 08:55:54;;;;;;;2.05;1.95;;;17.00;99.90;;;;;;5093732;28;20038;-55
2022/06/07 08:58:28;;;;;;;1.75;1.55;;;17.20;99.90;;;;;;5092472;28;20020;-58
2022/06/07 09:00:58;;;;;;;1.70;1.60;;;17.30;99.90;;;;;;5092249;28;20020;-58
2022/06/07 09:03:49;;;;;;;1.80;1.70;;;17.30;99.90;;;;;;5093781;28;20023;-57
2022/06/07 09:06:29;;;;;;;2.70;1.50;;;17.60;99.90;;;;;;5093700;28;20077;-58
2022/06/07 09:08:57;;;;;;;1.60;1.50;;;17.60;99.90;;;;;;5093753;28;20063;-58
2022/06/07 09:14:20;;;;;;;6.35;1.58;;;17.70;99.90;;;;;;5095078;28;20047;-56
2022/06/07 09:16:45;;;;;;;1.48;1.40;;;17.80;99.90;;;;;;5093384;28;20386;-57
2022/06/07 09:19:21;;;;;;;1.88;1.77;;;17.70;99.90;;;;;;5094180;28;20032;-56
2022/06/07 09:21:49;;;;;;;1.92;1.83;;;17.50;99.90;;;;;;5094067;28;20027;-56
2022/06/07 09:24:59;;;;;;;1.73;1.63;;;17.60;99.90;;;;;;5093704;28;20487;-57
2022/06/07 09:27:27;;;;;;;1.88;1.77;;;17.90;99.90;;;;;;5070871;28;20063;-57
2022/06/07 09:30:02;;;;;;;1.65;1.55;;;18.00;99.90;;;;;;5070643;28;20100;-59
2022/06/07 09:32:33;;;;;;;3.65;1.50;;;18.00;99.90;;;;;;5073096;28;20052;-56
2022/06/07 09:35:02;;;;;;;3.20;1.83;;;18.10;99.90;;;;;;5072854;28;20023;-55
2022/06/07 09:37:43;;;;;;;2.97;2.65;;;18.10;99.90;;;;;;5071208;28;20044;-57
2022/06/07 09:40:22;;;;;;;2.58;1.60;;;17.90;99.90;;;;;;5072795;28;20487;-58
2022/06/07 09:43:08;;;;;;;3.22;2.80;;;17.80;99.90;;;;;;5072464;28;20021;-57
2022/06/07 09:45:51;;;;;;;2.60;2.40;;;17.70;99.90;;;;;;5073214;28;20305;-57
2022/06/07 09:48:38;;;;;;;2.17;1.97;;;17.80;99.90;;;;;;5074214;28;20077;-57
2022/06/07 09:51:06;;;;;;;2.05;1.63;;;18.00;99.90;;;;;;5071545;28;20255;-57
2022/06/07 09:53:38;;;;;;;4.32;3.90;;;17.80;99.90;;;;;;5072492;28;20020;-58
2022/06/07 09:56:16;;;;;;;3.72;1.88;;;17.80;99.90;;;;;;5073444;28;20074;-59
2022/06/07 09:58:51;;;;;;;4.38;1.85;;;18.00;99.90;;;;;;5073527;28;20460;-56
2022/06/07 10:01:35;;;;;;;2.78;2.58;;;18.00;99.90;;;;;;5071801;28;20124;-56
2022/06/07 10:04:42;;;;;;;1.83;1.73;;;18.10;99.90;;;;;;5072274;28;20056;-58
2022/06/07 10:07:19;;;;;;;1.63;1.52;;;18.60;99.90;;;;;;5071080;28;20628;-55
2022/06/07 10:09:56;;;;;;;1.40;1.30;;;18.90;99.90;;;;;;5071681;28;20074;-55
2022/06/07 10:12:59;;;;;;;1.55;1.45;;;19.10;99.90;;;;;;5072757;28;20032;-56
2022/06/07 10:15:47;;;;;;;2.88;1.75;;;19.30;99.90;;;;;;5071938;28;20027;-56
2022/06/07 10:18:18;;;;;;;1.67;1.58;;;19.40;99.90;;;;;;5071804;28;20033;-66
2022/06/07 10:20:58;;;;;;;4.40;1.35;;;19.30;99.90;;;;;;5071075;28;20077;-57
2022/06/07 10:23:51;;;;;;;2.88;1.25;;;19.60;99.90;;;;;;5070857;28;20025;-55
2022/06/07 10:27:00;;;;;;;1.27;1.17;;;20.00;99.90;;;;;;5072158;28;20068;-55
2022/06/07 10:29:41;;;;;;;1.63;1.52;;;20.00;99.90;;;;;;5048686;28;20087;-55
2022/06/07 10:32:22;;;;;;;1.73;1.63;;;19.80;99.90;;;;;;5071177;28;20025;-57
2022/06/07 10:34:48;;;;;;;1.40;1.30;;;20.00;99.90;;;;;;5071966;28;20048;-54
2022/06/07 10:37:24;;;;;;;2.80;1.73;;;19.90;99.90;;;;;;5072070;28;20479;-54
2022/06/07 10:40:10;;;;;;;1.58;1.48;;;20.50;99.90;;;;;;5072153;28;20044;-53
2022/06/07 10:42:47;;;;;;;1.63;1.10;;;20.60;99.90;;;;;;5092190;28;20038;-55
2022/06/07 10:45:20;;;;;;;1.00;1.00;;;21.10;99.90;;;;;;5092068;28;20020;-55
2022/06/07 10:47:46;;;;;;;1.20;1.20;;;21.00;99.90;;;;;;5090241;28;20021;-54
2022/06/07 10:50:45;;;;;;;2.55;1.42;;;21.20;99.90;;;;;;5090977;28;20036;-55
2022/06/07 10:53:36;;;;;;;1.63;0.90;;;20.90;99.90;;;;;;5084109;28;20696;-55
2022/06/07 10:56:05;;;;;;;1.10;1.00;;;21.40;99.90;;;;;;5063883;28;20119;-55
2022/06/07 10:58:39;;;;;;;1.00;0.80;;;21.80;99.90;;;;;;5079545;28;20701;-55
2022/06/07 11:01:16;;;;;;;1.13;0.90;;;21.90;99.90;;;;;;5080675;28;20050;-56
2022/06/07 11:03:57;;;;;;;0.90;0.90;;;21.90;99.90;;;;;;5086541;28;20032;-54
2022/06/07 11:09:35;;;;;;;1.65;0.85;;;21.90;99.90;;;;;;5086188;28;20090;-53
2022/06/07 11:12:08;;;;;;;0.93;0.90;;;21.90;99.90;;;;;;5085185;28;20093;-55
2022/06/07 11:15:00;;;;;;;0.90;0.90;;;21.30;99.90;;;;;;5071462;28;20075;-55
2022/06/07 11:18:01;;;;;;;0.90;0.90;;;21.20;99.90;;;;;;5084756;28;20425;-52
2022/06/07 11:20:30;;;;;;;0.73;0.73;;;21.50;99.90;;;;;;5077042;28;20048;-55
2022/06/07 11:23:16;;;;;;;1.08;0.88;;;21.00;99.90;;;;;;5085016;28;20034;-54
2022/06/07 11:25:57;;;;;;;1.33;1.10;;;21.20;99.90;;;;;;5071934;28;20067;-52
2022/06/07 11:28:32;;;;;;;1.33;1.23;;;20.80;99.90;;;;;;5084985;28;20077;-54
2022/06/07 11:31:41;;;;;;;1.38;1.27;;;20.70;99.90;;;;;;5086702;28;20071;-53
2022/06/07 11:34:23;;;;;;;1.38;1.20;;;20.60;99.90;;;;;;5084080;28;20024;-55
2022/06/07 11:37:02;;;;;;;1.67;1.00;;;20.10;99.90;;;;;;5084644;28;20566;-54
2022/06/07 11:39:28;;;;;;;2.75;1.60;;;20.00;99.90;;;;;;5083489;28;20101;-54
2022/06/07 11:42:18;;;;;;;3.45;1.55;;;19.90;99.90;;;;;;5082676;28;20024;-55
2022/06/07 11:44:50;;;;;;;3.55;1.33;;;19.90;99.90;;;;;;5082657;28;20035;-55
2022/06/07 11:47:26;;;;;;;1.10;1.08;;;19.70;99.90;;;;;;5084185;28;20020;-54
2022/06/07 11:49:57;;;;;;;2.05;1.73;;;19.80;99.90;;;;;;5085498;28;20028;-53
2022/06/07 11:52:26;;;;;;;1.17;1.08;;;19.70;99.90;;;;;;5082498;28;20112;-54
2022/06/07 11:54:57;;;;;;;1.20;1.20;;;19.60;99.90;;;;;;5081049;28;20440;-52
2022/06/07 11:57:26;;;;;;;2.03;1.20;;;20.00;99.90;;;;;;5076465;28;20413;-54
2022/06/07 11:59:55;;;;;;;1.60;1.35;;;20.40;99.90;;;;;;5082016;28;20433;-53
2022/06/07 12:02:23;;;;;;;3.55;1.83;;;20.70;99.90;;;;;;5085259;28;20031;-54
2022/06/07 12:04:48;;;;;;;3.33;1.80;;;20.70;99.90;;;;;;5094823;28;20020;-56
2022/06/07 12:07:35;;;;;;;3.05;2.00;;;20.70;99.90;;;;;;5094621;28;20020;-56
2022/06/07 12:10:18;;;;;;;2.20;1.50;;;20.60;99.90;;;;;;5094573;28;20516;-54
2022/06/07 12:12:49;;;;;;;1.40;1.30;;;20.80;99.90;;;;;;5093807;28;20028;-56
2022/06/07 12:15:37;;;;;;;1.88;1.23;;;20.90;99.90;;;;;;5094985;28;20020;-54
2022/06/07 12:18:21;;;;;;;1.88;1.70;;;21.30;99.90;;;;;;5095638;28;20055;-55
2022/06/07 12:21:07;;;;;;;1.42;1.40;;;21.30;99.90;;;;;;5094330;28;20020;-55
2022/06/07 12:23:41;;;;;;;1.48;1.38;;;20.50;99.90;;;;;;5094433;28;20028;-53
2022/06/07 12:26:16;;;;;;;1.33;0.95;;;19.80;99.90;;;;;;5095670;28;20348;-54
2022/06/07 12:28:54;;;;;;;1.73;1.45;;;19.60;99.90;;;;;;5094210;28;20051;-53
2022/06/07 12:31:30;;;;;;;2.28;2.05;;;19.30;99.90;;;;;;5094267;28;20354;-52
2022/06/07 12:33:59;;;;;;;4.75;1.60;;;19.10;99.90;;;;;;5094666;28;20409;-52
2022/06/07 12:36:30;;;;;;;1.40;1.30;;;18.20;99.90;;;;;;5095312;28;20030;-53
2022/06/07 12:39:00;;;;;;;1.55;1.45;;;17.70;99.90;;;;;;5094594;28;20042;-51
2022/06/07 12:41:27;;;;;;;4.88;1.50;;;17.40;99.90;;;;;;5093232;28;20028;-54
2022/06/07 12:43:57;;;;;;;1.90;1.70;;;17.20;99.90;;;;;;5093416;28;20107;-53
2022/06/07 12:46:41;;;;;;;1.40;1.30;;;17.20;99.90;;;;;;5094971;28;20051;-51
2022/06/07 12:49:27;;;;;;;1.40;1.30;;;17.00;99.90;;;;;;5093659;28;20017;-54
2022/06/07 12:51:56;;;;;;;1.70;1.60;;;16.80;99.90;;;;;;5093646;28;20537;-55
2022/06/07 12:54:22;;;;;;;1.70;1.60;;;17.00;99.90;;;;;;5097924;28;20387;-54
2022/06/07 12:56:51;;;;;;;1.58;1.48;;;16.80;99.90;;;;;;5094725;28;20024;-52
2022/06/07 12:59:21;;;;;;;1.58;1.48;;;16.90;99.90;;;;;;5093341;28;20084;-55
2022/06/07 13:01:49;;;;;;;0.93;0.93;;;16.80;99.90;;;;;;5094657;28;20352;-53
2022/06/07 13:04:32;;;;;;;3.15;1.20;;;16.80;99.90;;;;;;5097413;28;20032;-54
2022/06/07 13:07:01;;;;;;;1.40;1.30;;;16.90;99.90;;;;;;5094285;28;20020;-54
2022/06/07 13:09:28;;;;;;;1.27;1.17;;;17.00;99.90;;;;;;5093448;28;20036;-54
2022/06/07 13:11:57;;;;;;;1.15;1.13;;;17.10;99.90;;;;;;5093952;28;20056;-54
2022/06/07 13:14:23;;;;;;;1.40;1.30;;;17.20;99.90;;;;;;5094408;28;20017;-54
2022/06/07 13:16:49;;;;;;;2.67;2.08;;;17.20;99.90;;;;;;5094360;28;20020;-55
2022/06/07 13:19:15;;;;;;;9.80;4.95;;;17.10;99.90;;;;;;5094274;28;20027;-54
2022/06/07 13:21:48;;;;;;;25.95;16.25;;;17.10;99.90;;;;;;5092764;28;20025;-52
2022/06/07 13:24:27;;;;;;;34.88;24.35;;;17.10;99.90;;;;;;5072834;28;20723;-53